createdAt,value
2017-10-24T00:01:10.735Z,18.57
2017-10-24T00:03:41.047Z,18.17
2017-10-24T00:06:10.201Z,18.67
2017-10-24T00:08:39.580Z,18.23
2017-10-24T00:11:08.969Z,17.63
2017-10-24T00:13:39.116Z,16.67
2017-10-24T00:16:08.504Z,18.10
2017-10-24T00:18:37.892Z,18.53
2017-10-24T00:21:08.032Z,18.70
2017-10-24T00:23:37.415Z,17.63
2017-10-24T00:26:07.882Z,17.13
2017-10-24T00:28:37.265Z,17.50
2017-10-24T00:31:06.644Z,18.67
2017-10-24T00:33:36.625Z,19.30
2017-10-24T00:36:05.995Z,17.77
2017-10-24T00:38:35.063Z,18.77
2017-10-24T00:41:05.537Z,18.67
2017-10-24T00:43:34.919Z,20.00
2017-10-24T00:46:04.281Z,20.27
2017-10-24T00:48:34.072Z,19.60
2017-10-24T00:51:03.449Z,20.53
2017-10-24T00:53:32.815Z,20.10
2017-10-24T00:56:01.800Z,18.60
2017-10-24T00:58:30.790Z,19.97
2017-10-24T01:00:59.339Z,19.87
2017-10-24T01:03:29.077Z,18.67
2017-10-24T01:05:58.451Z,18.47
2017-10-24T01:08:27.844Z,19.23
2017-10-24T01:10:57.240Z,19.63
2017-10-24T01:13:26.620Z,19.87
2017-10-24T01:15:56.084Z,18.17
2017-10-24T01:18:25.793Z,18.80
2017-10-24T01:20:54.280Z,18.90
2017-10-24T01:23:22.780Z,18.33
2017-10-24T01:25:54.156Z,20.23
2017-10-24T01:28:23.552Z,20.10
2017-10-24T01:30:52.395Z,20.43
2017-10-24T01:33:21.787Z,20.37
2017-10-24T01:35:50.623Z,20.17
2017-10-24T01:38:19.884Z,20.37
2017-10-24T01:40:48.662Z,19.93
2017-10-24T01:43:17.298Z,21.07
2017-10-24T01:45:47.387Z,21.10
2017-10-24T01:48:16.387Z,20.57
2017-10-24T01:50:45.077Z,21.13
2017-10-24T01:53:13.760Z,20.43
2017-10-24T01:55:42.832Z,20.90
2017-10-24T01:58:11.879Z,20.30
2017-10-24T02:00:40.567Z,19.43
2017-10-24T02:03:09.728Z,21.83
2017-10-24T02:05:38.215Z,21.57
2017-10-24T02:08:07.231Z,21.60
2017-10-24T02:10:36.792Z,20.97
2017-10-24T02:13:05.475Z,21.00
2017-10-24T02:15:34.919Z,21.17
2017-10-24T02:18:04.689Z,23.07
2017-10-24T02:20:33.363Z,20.80
2017-10-24T02:23:01.850Z,21.70
2017-10-24T02:25:31.310Z,22.07
2017-10-24T02:28:01.113Z,21.43
2017-10-24T02:30:31.259Z,21.50
2017-10-24T02:33:00.451Z,23.07
2017-10-24T02:35:29.476Z,21.93
2017-10-24T02:37:58.512Z,22.03
2017-10-24T02:40:28.491Z,21.40
2017-10-24T02:42:57.868Z,21.23
2017-10-24T02:45:26.891Z,21.53
2017-10-24T02:47:57.352Z,22.40
2017-10-24T02:50:26.727Z,22.33
2017-10-24T02:52:56.121Z,20.43
2017-10-24T02:55:25.772Z,20.90
2017-10-24T02:57:55.155Z,20.90
2017-10-24T03:00:24.536Z,21.40
2017-10-24T03:02:53.722Z,20.03
2017-10-24T03:05:23.100Z,20.33
2017-10-24T03:07:52.296Z,19.97
2017-10-24T03:10:22.781Z,18.93
2017-10-24T03:12:52.230Z,20.10
2017-10-24T03:15:21.671Z,19.90
2017-10-24T03:17:50.708Z,19.20
2017-10-24T03:20:19.740Z,18.97
2017-10-24T03:22:49.119Z,19.33
2017-10-24T03:25:19.604Z,19.70
2017-10-24T03:27:48.980Z,19.57
2017-10-24T03:30:18.362Z,18.77
2017-10-24T03:32:49.125Z,18.93
2017-10-24T03:35:18.506Z,18.57
2017-10-24T03:37:47.891Z,18.43
2017-10-24T03:40:18.046Z,20.23
2017-10-24T03:42:47.761Z,19.70
2017-10-24T03:45:17.192Z,20.07
2017-10-24T03:47:46.887Z,19.83
2017-10-24T03:50:16.268Z,18.97
2017-10-24T03:52:45.452Z,19.50
2017-10-24T03:55:15.124Z,20.43
2017-10-24T03:57:44.148Z,19.77
2017-10-24T04:00:14.300Z,19.20
2017-10-24T04:02:43.920Z,19.27
2017-10-24T04:05:13.104Z,19.73
2017-10-24T04:07:42.650Z,19.23
2017-10-24T04:10:12.236Z,21.17
2017-10-24T04:12:41.414Z,19.53
2017-10-24T04:15:10.792Z,18.93
2017-10-24T04:17:40.437Z,19.53
2017-10-24T04:20:09.625Z,19.83
2017-10-24T04:22:38.807Z,19.40
2017-10-24T04:25:08.678Z,19.20
2017-10-24T04:27:38.040Z,20.93
2017-10-24T04:30:07.422Z,20.83
2017-10-24T04:32:37.088Z,20.13
2017-10-24T04:35:06.273Z,22.47
2017-10-24T04:37:35.467Z,22.33
2017-10-24T04:40:05.179Z,22.17
2017-10-24T04:42:34.644Z,20.67
2017-10-24T04:45:04.039Z,21.43
2017-10-24T04:47:33.793Z,22.00
2017-10-24T04:50:03.184Z,20.53
2017-10-24T04:52:32.556Z,22.27
2017-10-24T04:55:02.204Z,22.03
2017-10-24T04:57:31.581Z,22.43
2017-10-24T05:00:01.034Z,22.87
2017-10-24T05:02:31.059Z,21.17
2017-10-24T05:05:00.435Z,21.20
2017-10-24T05:07:29.813Z,20.60
2017-10-24T05:09:59.535Z,20.03
2017-10-24T05:12:29.674Z,21.23
2017-10-24T05:14:59.069Z,20.40
2017-10-24T05:17:28.767Z,19.60
2017-10-24T05:19:57.956Z,19.63
2017-10-24T05:22:27.336Z,19.80
2017-10-24T05:24:56.981Z,17.93
2017-10-24T05:27:26.358Z,18.13
2017-10-24T05:29:55.760Z,18.03
2017-10-24T05:32:26.012Z,17.80
2017-10-24T05:34:55.395Z,16.30
2017-10-24T05:37:24.770Z,18.47
2017-10-24T05:39:54.164Z,17.13
2017-10-24T05:42:24.315Z,16.50
2017-10-24T05:44:53.697Z,17.53
2017-10-24T05:47:23.883Z,18.00
2017-10-24T05:49:53.260Z,16.10
2017-10-24T05:52:22.635Z,15.63
2017-10-24T05:54:52.108Z,15.43
2017-10-24T05:57:22.252Z,16.67
2017-10-24T05:59:51.665Z,15.90
2017-10-24T06:02:21.343Z,17.20
2017-10-24T06:04:51.487Z,16.50
2017-10-24T06:07:20.669Z,16.90
2017-10-24T06:09:50.827Z,15.60
2017-10-24T06:12:20.199Z,17.43
2017-10-24T06:14:49.573Z,16.83
2017-10-24T06:17:19.066Z,15.37
2017-10-24T06:19:48.283Z,15.77
2017-10-24T06:22:17.659Z,15.43
2017-10-24T06:24:47.358Z,14.63
2017-10-24T06:27:16.740Z,15.77
2017-10-24T06:29:46.140Z,15.97
2017-10-24T06:32:15.843Z,15.33
2017-10-24T06:34:45.222Z,17.40
2017-10-24T06:37:16.029Z,15.60
2017-10-24T06:39:45.884Z,15.20
2017-10-24T06:42:15.734Z,16.43
2017-10-24T06:44:45.253Z,15.77
2017-10-24T06:47:14.639Z,15.90
2017-10-24T06:49:44.019Z,16.37
2017-10-24T06:52:13.419Z,15.00
2017-10-24T06:54:42.817Z,15.67
2017-10-24T06:57:12.191Z,15.13
2017-10-24T06:59:41.484Z,15.87
2017-10-24T07:02:11.305Z,15.87
2017-10-24T07:04:40.551Z,15.43
2017-10-24T07:07:10.402Z,15.83
2017-10-24T07:09:39.780Z,16.53
2017-10-24T07:12:08.972Z,17.20
2017-10-24T07:14:38.451Z,15.83
2017-10-24T07:17:07.847Z,15.33
2017-10-24T07:19:38.000Z,15.73
2017-10-24T07:22:07.391Z,14.63
2017-10-24T07:24:36.768Z,16.57
2017-10-24T07:27:07.348Z,16.13
2017-10-24T07:29:36.727Z,15.90
2017-10-24T07:32:06.099Z,16.70
2017-10-24T07:34:36.292Z,15.17
2017-10-24T07:37:05.694Z,15.57
2017-10-24T07:39:35.891Z,14.43
2017-10-24T07:42:05.207Z,14.50
2017-10-24T07:44:34.235Z,14.47
2017-10-24T07:47:03.604Z,14.67
2017-10-24T07:49:33.181Z,14.93
2017-10-24T07:52:02.559Z,14.80
2017-10-24T07:54:32.218Z,14.70
2017-10-24T07:57:02.747Z,14.00
2017-10-24T07:59:32.109Z,14.63
2017-10-24T08:02:01.500Z,15.63
2017-10-24T08:04:31.776Z,14.40
2017-10-24T08:07:02.908Z,14.77
2017-10-24T08:09:32.629Z,13.73
2017-10-24T08:12:03.605Z,14.90
2017-10-24T08:14:34.202Z,13.43
2017-10-24T08:17:03.575Z,12.57
2017-10-24T08:19:33.238Z,13.43
2017-10-24T08:22:02.627Z,13.87
2017-10-24T08:24:32.008Z,14.07
2017-10-24T08:27:01.376Z,13.93
2017-10-24T08:29:31.855Z,13.70
2017-10-24T08:32:01.232Z,14.27
2017-10-24T08:34:30.608Z,13.13
2017-10-24T08:37:00.762Z,14.13
2017-10-24T08:39:30.144Z,13.13
2017-10-24T08:42:00.068Z,13.97
2017-10-24T08:44:29.463Z,13.17
2017-10-24T08:46:58.872Z,12.43
2017-10-24T08:49:28.243Z,14.57
2017-10-24T08:51:58.213Z,12.87
2017-10-24T08:54:27.602Z,12.70
2017-10-24T08:56:56.976Z,12.80
2017-10-24T08:59:26.379Z,12.67
2017-10-24T09:01:56.511Z,13.07
2017-10-24T09:04:25.907Z,13.20
2017-10-24T09:06:56.680Z,13.17
2017-10-24T09:12:27.897Z,12.83
2017-10-24T09:14:59.819Z,12.83
2017-10-24T09:17:39.697Z,12.03
2017-10-24T09:20:08.428Z,12.80
2017-10-24T09:22:37.733Z,12.13
2017-10-24T09:25:07.465Z,12.57
2017-10-24T09:27:39.123Z,11.87
2017-10-24T09:30:12.538Z,12.23
2017-10-24T09:32:41.533Z,11.73
2017-10-24T09:35:10.728Z,11.83
2017-10-24T09:37:57.264Z,11.77
2017-10-24T09:40:31.969Z,11.50
2017-10-24T09:43:07.892Z,11.90
2017-10-24T09:45:36.956Z,11.07
2017-10-24T09:48:06.416Z,12.33
2017-10-24T09:54:03.897Z,13.00
2017-10-24T09:56:44.369Z,11.60
2017-10-24T09:59:16.841Z,12.70
2017-10-24T10:01:47.187Z,11.83
2017-10-24T10:04:17.377Z,11.87
2017-10-24T10:06:53.194Z,11.10
2017-10-24T10:09:21.880Z,12.17
2017-10-24T10:11:51.271Z,10.57
2017-10-24T10:14:20.018Z,11.23
2017-10-24T10:17:07.399Z,10.73
2017-10-24T10:19:38.969Z,10.50
2017-10-24T10:22:07.661Z,9.47
2017-10-24T10:24:38.780Z,9.30
2017-10-24T10:27:08.159Z,9.63
2017-10-24T10:29:37.564Z,10.30
2017-10-24T10:32:06.956Z,8.70
2017-10-24T10:34:36.758Z,8.67
2017-10-24T10:37:09.245Z,8.93
2017-10-24T10:39:53.360Z,9.00
2017-10-24T10:42:30.761Z,8.47
2017-10-24T10:47:47.842Z,8.10
2017-10-24T10:50:17.029Z,7.43
2017-10-24T10:52:46.414Z,8.33
2017-10-24T10:55:32.864Z,7.73
2017-10-24T11:01:20.767Z,7.50
2017-10-24T11:03:49.946Z,7.50
2017-10-24T11:06:20.436Z,7.53
2017-10-24T11:08:49.466Z,7.20
2017-10-24T11:11:18.844Z,7.70
2017-10-24T11:13:48.352Z,7.03
2017-10-24T11:16:38.171Z,8.07
2017-10-24T11:19:08.516Z,8.60
2017-10-24T11:24:32.415Z,7.80
2017-10-24T11:27:01.797Z,7.67
2017-10-24T11:29:31.191Z,8.47
2017-10-24T11:32:01.372Z,8.40
2017-10-24T11:34:30.751Z,8.97
2017-10-24T11:37:00.168Z,8.03
2017-10-24T11:39:29.560Z,8.50
2017-10-24T11:41:59.712Z,8.73
2017-10-24T11:44:29.782Z,8.87
2017-10-24T11:46:59.165Z,8.80
2017-10-24T11:49:28.550Z,8.80
2017-10-24T11:51:59.044Z,8.60
2017-10-24T11:54:28.600Z,8.37
2017-10-24T11:56:57.976Z,8.13
2017-10-24T11:59:27.694Z,8.47
2017-10-24T12:01:57.069Z,7.97
2017-10-24T12:04:38.295Z,8.50
2017-10-24T12:07:15.260Z,8.37
2017-10-24T12:10:07.839Z,9.23
2017-10-24T12:12:37.237Z,8.27
2017-10-24T12:15:07.393Z,9.07
2017-10-24T12:20:26.703Z,9.37
2017-10-24T12:22:56.109Z,9.63
2017-10-24T12:25:25.494Z,8.87
2017-10-24T12:27:55.673Z,9.30
2017-10-24T12:30:29.856Z,9.53
2017-10-24T12:33:02.158Z,10.33
2017-10-24T12:35:31.701Z,10.23
2017-10-24T12:38:07.078Z,9.83
2017-10-24T12:40:42.751Z,9.53
2017-10-24T12:43:15.503Z,9.10
2017-10-24T12:45:44.712Z,9.50
2017-10-24T12:48:13.908Z,8.00
2017-10-24T12:50:46.434Z,8.47
2017-10-24T12:53:15.636Z,9.17
2017-10-24T12:55:44.829Z,8.73
2017-10-24T12:58:25.862Z,8.60
2017-10-24T13:00:55.061Z,8.40
2017-10-24T13:03:24.241Z,8.63
2017-10-24T13:05:53.705Z,8.10
2017-10-24T13:08:25.048Z,7.83
2017-10-24T13:10:56.219Z,8.50
2017-10-24T13:13:25.424Z,6.77
2017-10-24T13:15:54.930Z,8.47
2017-10-24T13:18:24.841Z,7.77
2017-10-24T13:20:54.220Z,7.53
2017-10-24T13:23:24.374Z,7.03
2017-10-24T13:25:54.113Z,7.17
2017-10-24T13:28:24.245Z,7.70
2017-10-24T13:30:54.694Z,9.03
2017-10-24T13:33:27.794Z,8.10
2017-10-24T13:36:00.465Z,7.73
2017-10-24T13:38:33.664Z,8.53
2017-10-24T13:41:03.620Z,7.70
2017-10-24T13:43:33.016Z,7.70
2017-10-24T13:46:02.401Z,8.30
2017-10-24T13:48:33.624Z,7.80
2017-10-24T13:51:03.462Z,8.07
2017-10-24T13:53:33.694Z,8.67
2017-10-24T13:56:03.687Z,9.37
2017-10-24T13:58:37.550Z,9.00
2017-10-24T14:01:12.220Z,9.03
2017-10-24T14:03:43.461Z,8.77
2017-10-24T14:06:19.321Z,8.77
2017-10-24T14:08:54.986Z,9.40
2017-10-24T14:11:25.473Z,8.47
2017-10-24T14:13:54.854Z,10.07
2017-10-24T14:16:24.251Z,9.30
2017-10-24T14:18:56.231Z,9.70
2017-10-24T14:21:26.054Z,10.47
2017-10-24T14:23:55.463Z,10.63
2017-10-24T14:26:25.898Z,9.57
2017-10-24T14:28:56.084Z,9.97
2017-10-24T14:31:25.520Z,11.13
2017-10-24T14:33:55.214Z,10.50
2017-10-24T14:36:24.606Z,11.10
2017-10-24T14:38:53.992Z,10.80
2017-10-24T14:41:24.192Z,10.30
2017-10-24T14:43:53.593Z,10.87
2017-10-24T14:46:24.799Z,11.27
2017-10-24T14:48:54.948Z,12.23
2017-10-24T14:51:24.682Z,13.00
2017-10-24T14:53:54.069Z,11.03
2017-10-24T14:56:24.246Z,13.13
2017-10-24T14:58:53.637Z,12.37
2017-10-24T15:01:29.482Z,12.83
2017-10-24T15:03:59.875Z,13.50
2017-10-24T15:06:29.615Z,11.93
2017-10-24T15:08:59.003Z,14.00
2017-10-24T15:11:28.450Z,13.50
2017-10-24T15:13:58.263Z,13.90
2017-10-24T15:16:27.631Z,16.03
2017-10-24T15:18:57.123Z,14.80
2017-10-24T15:21:28.445Z,13.50
2017-10-24T15:23:57.914Z,14.47
2017-10-24T15:26:33.121Z,14.57
2017-10-24T15:29:03.909Z,14.40
2017-10-24T15:31:34.071Z,13.07
2017-10-24T15:34:08.070Z,14.27
2017-10-24T15:36:37.841Z,14.63
2017-10-24T15:39:07.251Z,14.60
2017-10-24T15:41:36.620Z,15.60
2017-10-24T15:44:06.029Z,14.70
2017-10-24T15:46:37.647Z,14.90
2017-10-24T15:49:07.360Z,14.60
2017-10-24T15:51:39.123Z,16.27
2017-10-24T15:54:08.886Z,15.87
2017-10-24T15:56:38.281Z,14.97
2017-10-24T15:59:07.665Z,14.57
2017-10-24T16:01:41.261Z,15.50
2017-10-24T16:04:11.660Z,15.10
2017-10-24T16:06:49.580Z,15.13
2017-10-24T16:09:22.292Z,15.43
2017-10-24T16:11:52.526Z,15.80
2017-10-24T16:14:22.685Z,14.70
2017-10-24T16:16:52.155Z,14.70
2017-10-24T16:19:21.862Z,15.73
2017-10-24T16:21:51.249Z,14.57
2017-10-24T16:24:20.649Z,14.63
2017-10-24T16:26:51.130Z,15.23
2017-10-24T16:29:20.530Z,15.30
2017-10-24T16:31:49.906Z,15.30
2017-10-24T16:34:20.536Z,15.00
2017-10-24T16:36:50.721Z,15.77
2017-10-24T16:39:20.122Z,14.37
2017-10-24T16:41:49.939Z,16.57
2017-10-24T16:44:19.138Z,16.33
2017-10-24T16:46:49.342Z,16.73
2017-10-24T16:49:19.622Z,14.40
2017-10-24T16:51:49.133Z,16.43
2017-10-24T16:54:18.904Z,16.00
2017-10-24T16:56:48.902Z,15.83
2017-10-24T16:59:18.280Z,17.10
2017-10-24T17:01:48.443Z,16.47
2017-10-24T17:04:18.326Z,17.23
2017-10-24T17:06:48.070Z,17.10
2017-10-24T17:09:19.274Z,16.13
2017-10-24T17:11:48.677Z,16.00
2017-10-24T17:14:18.072Z,16.90
2017-10-24T17:16:47.664Z,15.97
2017-10-24T17:19:17.852Z,16.43
2017-10-24T17:21:47.526Z,15.90
2017-10-24T17:24:17.696Z,16.27
2017-10-24T17:26:47.241Z,15.30
2017-10-24T17:29:16.605Z,15.00
2017-10-24T17:31:46.011Z,14.57
2017-10-24T17:34:15.782Z,15.27
2017-10-24T17:36:45.178Z,14.50
2017-10-24T17:39:14.561Z,14.03
2017-10-24T17:41:45.363Z,14.40
2017-10-24T17:44:14.782Z,14.53
2017-10-24T17:46:44.219Z,14.83
2017-10-24T17:49:14.722Z,13.33
2017-10-24T17:51:44.281Z,14.10
2017-10-24T17:54:14.480Z,13.23
2017-10-24T17:56:43.869Z,13.40
2017-10-24T17:59:13.275Z,12.23
2017-10-24T18:01:42.985Z,12.43
2017-10-24T18:04:13.158Z,12.60
2017-10-24T18:06:42.234Z,11.87
2017-10-24T18:09:11.676Z,12.33
2017-10-24T18:11:41.087Z,12.10
2017-10-24T18:14:10.476Z,12.93
2017-10-24T18:16:40.649Z,12.17
2017-10-24T18:19:10.528Z,12.37
2017-10-24T18:21:40.710Z,11.70
2017-10-24T18:24:10.662Z,12.07
2017-10-24T18:26:40.371Z,12.07
2017-10-24T18:29:09.756Z,11.67
2017-10-24T18:31:39.764Z,13.27
2017-10-24T18:34:08.950Z,13.00
2017-10-24T18:36:38.357Z,11.93
2017-10-24T18:39:08.310Z,13.40
2017-10-24T18:41:37.574Z,12.90
2017-10-24T18:44:06.790Z,12.43
2017-10-24T18:46:36.245Z,12.67
2017-10-24T18:49:06.009Z,12.03
2017-10-24T18:51:35.207Z,11.80
2017-10-24T18:54:04.409Z,12.23
2017-10-24T18:56:33.606Z,12.10
2017-10-24T18:59:02.616Z,12.60
2017-10-24T19:01:31.970Z,13.30
2017-10-24T19:04:00.984Z,12.00
2017-10-24T19:06:30.165Z,12.57
2017-10-24T19:08:59.467Z,13.27
2017-10-24T19:11:29.243Z,11.80
2017-10-24T19:13:58.454Z,11.90
2017-10-24T19:16:31.374Z,11.47
2017-10-24T19:19:00.381Z,11.93
2017-10-24T19:21:30.336Z,11.70
2017-10-24T19:23:59.912Z,11.33
2017-10-24T19:26:29.880Z,11.30
2017-10-24T19:28:59.082Z,11.83
2017-10-24T19:31:28.302Z,11.67
2017-10-24T19:33:57.549Z,11.90
2017-10-24T19:36:26.745Z,11.97
2017-10-24T19:38:56.055Z,11.87
2017-10-24T19:41:25.269Z,11.83
2017-10-24T19:43:54.468Z,12.90
2017-10-24T19:46:24.065Z,12.63
2017-10-24T19:48:53.256Z,11.37
2017-10-24T19:51:23.232Z,12.57
2017-10-24T19:53:57.498Z,11.70
2017-10-24T19:56:27.854Z,11.80
2017-10-24T19:58:58.363Z,11.93
2017-10-24T20:01:27.370Z,11.33
2017-10-24T20:03:56.557Z,12.43
2017-10-24T20:06:27.004Z,11.03
2017-10-24T20:08:57.046Z,11.30
2017-10-24T20:11:26.056Z,12.47
2017-10-24T20:13:55.425Z,11.40
2017-10-24T20:16:24.607Z,11.77
2017-10-24T20:18:53.610Z,11.73
2017-10-24T20:21:24.202Z,11.63
2017-10-24T20:23:53.505Z,12.20
2017-10-24T20:26:23.483Z,12.30
2017-10-24T20:28:53.460Z,11.57
2017-10-24T20:31:22.670Z,11.83
2017-10-24T20:33:51.850Z,10.90
2017-10-24T20:36:22.931Z,11.40
2017-10-24T20:38:54.207Z,11.87
2017-10-24T20:41:26.084Z,11.63
2017-10-24T20:43:57.726Z,11.77
2017-10-24T20:46:27.529Z,12.17
2017-10-24T20:48:56.715Z,12.43
2017-10-24T20:51:26.674Z,12.27
2017-10-24T20:54:08.457Z,11.87
2017-10-24T20:56:38.416Z,11.73
2017-10-24T20:59:07.769Z,12.27
2017-10-24T21:01:37.161Z,12.27
2017-10-24T21:04:08.648Z,12.17
2017-10-24T21:06:39.408Z,10.50
2017-10-24T21:09:09.935Z,11.73
2017-10-24T21:11:39.988Z,11.60
2017-10-24T21:14:10.854Z,10.40
2017-10-24T21:16:40.038Z,10.23
2017-10-24T21:19:15.910Z,9.87
2017-10-24T21:21:45.915Z,10.07
2017-10-24T21:24:15.418Z,9.90
2017-10-24T21:26:46.799Z,10.40
2017-10-24T21:29:16.151Z,9.83
2017-10-24T21:31:45.393Z,10.53
2017-10-24T21:34:14.573Z,9.87
2017-10-24T21:36:44.042Z,9.83
2017-10-24T21:39:13.240Z,9.20
2017-10-24T21:41:42.437Z,10.33
2017-10-24T21:44:11.977Z,9.63
2017-10-24T21:46:43.316Z,9.87
2017-10-24T21:49:12.833Z,10.30
2017-10-24T21:51:45.329Z,9.53
2017-10-24T21:54:15.369Z,9.87
2017-10-24T21:56:44.562Z,10.20
2017-10-24T21:59:13.764Z,9.50
2017-10-24T22:01:43.301Z,10.33
2017-10-24T22:04:12.490Z,9.83
2017-10-24T22:06:41.713Z,9.83
2017-10-24T22:09:10.928Z,9.43
2017-10-24T22:11:40.131Z,8.97
2017-10-24T22:14:09.313Z,9.20
2017-10-24T22:16:39.232Z,10.33
2017-10-24T22:19:09.178Z,9.30
2017-10-24T22:21:38.394Z,9.07
2017-10-24T22:24:07.520Z,9.93
2017-10-24T22:26:37.717Z,9.83
2017-10-24T22:29:07.603Z,9.47
2017-10-24T22:31:38.857Z,9.40
2017-10-24T22:34:07.745Z,9.70
2017-10-24T22:36:39.133Z,9.43
2017-10-24T22:39:08.334Z,9.80
2017-10-24T22:41:37.515Z,8.73
2017-10-24T22:44:07.465Z,8.33
2017-10-24T22:46:36.672Z,9.03
2017-10-24T22:49:05.874Z,8.53
2017-10-24T22:51:35.403Z,8.90
2017-10-24T22:54:04.230Z,8.53
2017-10-24T22:56:34.192Z,8.80
2017-10-24T22:59:05.787Z,8.23
2017-10-24T23:01:34.976Z,7.90
2017-10-24T23:04:04.182Z,9.17
2017-10-24T23:06:36.630Z,8.10
2017-10-24T23:09:06.585Z,8.00
2017-10-24T23:11:35.778Z,8.57
2017-10-24T23:14:06.097Z,8.50
2017-10-24T23:16:35.982Z,7.87
2017-10-24T23:19:05.377Z,6.90
2017-10-24T23:21:35.374Z,7.90
2017-10-24T23:24:04.740Z,7.20
2017-10-24T23:26:34.127Z,7.07
2017-10-24T23:29:04.583Z,7.27
2017-10-24T23:31:34.055Z,7.00
2017-10-24T23:34:03.657Z,6.73
2017-10-24T23:36:35.175Z,8.43
2017-10-24T23:39:04.737Z,7.13
2017-10-24T23:41:34.129Z,7.50
2017-10-24T23:44:03.892Z,7.73
2017-10-24T23:46:33.317Z,8.47
2017-10-24T23:49:03.416Z,8.87
2017-10-24T23:51:33.129Z,8.77
2017-10-24T23:54:02.511Z,9.73
2017-10-24T23:56:31.893Z,9.70
2017-10-24T23:59:01.689Z,9.57
